KUGN/UGN METAR and TAF weather

Enter ICAO airport designator
Station Type Date Time Source
KUGN METAR 2020/06/03 16:55 UTC NOAA

KUGN 031655Z 24008KT 10SM BKN065 OVC075 23/18 A2988 RMK AO2 SLP106 T02280183


Station Type Date Time Source
KUGN Decoded METAR 2020/06/03 16:55 UTC NOAA

CHICAGO/WAUKEGAN REGIONAL, IL, United States (KUGN) 42-25N 087-52W
Jun 03, 2020 - 12:55 PM EDT / 2020.06.03 1655 UTC
Wind: from the WSW (240 degrees) at 9 MPH (8 KT):0
Visibility: 10 mile(s):0
Sky conditions: overcast
Temperature: 73.0 F (22.8 C)
Dew Point: 64.9 F (18.3 C)
Relative Humidity: 75%
Pressure (altimeter): 29.88 in. Hg (1011 hPa)
ob: KUGN 031655Z 24008KT 10SM BKN065 OVC075 23/18 A2988 RMK AO2 SLP106 T02280183
cycle: 17

Station Type Date Time Source
KUGN TAF UTC NOAA

Error!

Example: see airport list